Time;durP1;ratioP1;P1;durP2;ratioP2;P2;SDS_P1;SDS_P2;PMS_P1;PMS_P2;Temp;Humidity;BMP_temperature;BMP_pressure;BME280_temperature;BME280_humidity;BME280_pressure;Samples;Min_cycle;Max_cycle;Signal;HPM_P1;HPM_P2
2021/05/09 00:01:09;;;;;;;10.23;6.47;;;;;;;;;;5050775;28;20079;-87
2021/05/09 00:03:37;;;;;;;10.13;5.88;;;;;;;;;;5034125;28;20041;-87
2021/05/09 00:06:03;;;;;;;10.07;6.43;;;;;;;;;;5050764;28;20095;-87
2021/05/09 00:08:29;;;;;;;8.55;5.53;;;;;;;;;;5050663;28;20041;-87
2021/05/09 00:10:55;;;;;;;11.25;6.10;;;;;;;;;;5050627;28;20107;-87
2021/05/09 00:13:22;;;;;;;10.57;6.10;;;;;;;;;;5050481;28;20038;-87
2021/05/09 00:15:52;;;;;;;9.30;6.55;;;;;;;;;;5033952;28;20084;-87
2021/05/09 00:18:18;;;;;;;12.00;6.50;;;;;;;;;;5050620;28;20049;-87
2021/05/09 00:20:44;;;;;;;8.68;6.40;;;;;;;;;;5050615;28;20049;-87
2021/05/09 00:23:10;;;;;;;9.60;6.10;;;;;;;;;;5050496;28;20038;-87
2021/05/09 00:25:37;;;;;;;9.77;6.28;;;;;;;;;;5050527;28;20034;-87
2021/05/09 00:28:03;;;;;;;10.00;6.25;;;;;;;;;;5050433;28;20041;-87
2021/05/09 00:30:34;;;;;;;13.50;6.75;;;;;;;;;;5049845;28;20465;-87
2021/05/09 00:33:02;;;;;;;9.10;5.80;;;;;;;;;;5033870;28;20080;-87
2021/05/09 00:35:29;;;;;;;10.55;6.22;;;;;;;;;;5033500;28;20604;-87
2021/05/09 00:37:55;;;;;;;8.05;6.03;;;;;;;;;;5034643;28;20053;-87
2021/05/09 00:40:22;;;;;;;8.63;5.82;;;;;;;;;;5049848;28;20053;-87
2021/05/09 00:42:48;;;;;;;7.72;5.75;;;;;;;;;;5049878;28;20559;-87
2021/05/09 00:45:14;;;;;;;8.63;6.00;;;;;;;;;;5050020;28;20056;-87
2021/05/09 00:47:40;;;;;;;9.70;5.45;;;;;;;;;;5049866;28;20408;-87
2021/05/09 00:50:07;;;;;;;10.23;6.15;;;;;;;;;;5049973;28;20043;-87
2021/05/09 00:52:33;;;;;;;8.73;5.90;;;;;;;;;;5049922;28;20069;-87
2021/05/09 00:55:02;;;;;;;9.68;5.63;;;;;;;;;;5049725;28;20091;-87
2021/05/09 00:57:32;;;;;;;8.68;5.85;;;;;;;;;;5048861;28;20069;-87
2021/05/09 01:00:07;;;;;;;9.13;5.88;;;;;;;;;;5049164;28;20473;-87
2021/05/09 01:02:33;;;;;;;9.05;5.78;;;;;;;;;;5049647;28;20040;-87
2021/05/09 01:04:59;;;;;;;8.27;5.72;;;;;;;;;;5049632;28;20041;-87
2021/05/09 01:07:25;;;;;;;10.80;6.10;;;;;;;;;;5049440;28;20128;-87
2021/05/09 01:09:53;;;;;;;12.88;5.95;;;;;;;;;;5032740;28;20465;-87
2021/05/09 01:12:19;;;;;;;7.78;5.70;;;;;;;;;;5049532;28;20069;-86
2021/05/09 01:14:46;;;;;;;9.60;5.55;;;;;;;;;;5049468;28;20044;-87
2021/05/09 01:17:13;;;;;;;11.27;5.95;;;;;;;;;;5049247;28;20038;-86
2021/05/09 01:19:39;;;;;;;6.43;5.28;;;;;;;;;;5049535;28;20041;-86
2021/05/09 01:22:06;;;;;;;10.40;5.90;;;;;;;;;;5049435;28;20072;-87
2021/05/09 01:24:32;;;;;;;7.63;5.68;;;;;;;;;;5049139;28;20120;-87
2021/05/09 01:26:58;;;;;;;12.55;6.40;;;;;;;;;;5049106;28;20048;-87
2021/05/09 01:29:25;;;;;;;10.48;5.57;;;;;;;;;;5049052;28;20042;-87
2021/05/09 01:31:51;;;;;;;9.38;6.03;;;;;;;;;;5049195;28;20095;-87
2021/05/09 01:34:18;;;;;;;9.63;6.10;;;;;;;;;;5048943;28;20064;-87
2021/05/09 01:36:44;;;;;;;8.07;5.82;;;;;;;;;;5048930;28;20164;-86
2021/05/09 01:39:10;;;;;;;11.05;5.88;;;;;;;;;;5049096;28;20045;-87
2021/05/09 01:41:36;;;;;;;7.93;5.45;;;;;;;;;;5049181;28;20538;-87
2021/05/09 01:44:03;;;;;;;7.88;5.40;;;;;;;;;;5048992;28;20044;-87
2021/05/09 01:46:29;;;;;;;9.77;6.18;;;;;;;;;;5048779;28;20397;-87
2021/05/09 01:48:55;;;;;;;9.95;6.10;;;;;;;;;;5048792;28;20536;-87
2021/05/09 01:51:21;;;;;;;9.80;6.03;;;;;;;;;;5048691;28;20042;-87
2021/05/09 01:53:48;;;;;;;8.80;5.68;;;;;;;;;;5048576;28;20045;-87
2021/05/09 01:56:14;;;;;;;9.32;6.05;;;;;;;;;;5048068;28;20112;-87
2021/05/09 01:58:41;;;;;;;9.05;5.93;;;;;;;;;;5048653;28;20116;-87
2021/05/09 02:01:07;;;;;;;12.10;6.28;;;;;;;;;;5048591;28;20495;-87
2021/05/09 02:03:33;;;;;;;9.15;5.70;;;;;;;;;;5048485;28;20094;-87
2021/05/09 02:05:59;;;;;;;9.30;6.10;;;;;;;;;;5048434;28;20041;-87
2021/05/09 02:08:25;;;;;;;9.88;5.82;;;;;;;;;;5048321;28;20104;-86
2021/05/09 02:10:51;;;;;;;9.95;6.13;;;;;;;;;;5048385;28;20457;-86
2021/05/09 02:13:17;;;;;;;9.38;5.55;;;;;;;;;;5048395;28;20037;-87
2021/05/09 02:15:44;;;;;;;8.63;5.88;;;;;;;;;;5048204;28;20515;-87
2021/05/09 02:18:10;;;;;;;7.70;6.00;;;;;;;;;;5048347;28;20461;-87
2021/05/09 02:20:36;;;;;;;11.30;5.82;;;;;;;;;;5048076;28;20029;-87
2021/05/09 02:23:07;;;;;;;8.38;5.68;;;;;;;;;;5032865;28;20034;-87
2021/05/09 02:25:33;;;;;;;9.05;6.30;;;;;;;;;;5048146;28;20037;-87
2021/05/09 02:28:00;;;;;;;12.02;5.85;;;;;;;;;;5047929;28;20477;-87
2021/05/09 02:30:26;;;;;;;10.55;6.05;;;;;;;;;;5048019;28;20054;-87
2021/05/09 02:32:52;;;;;;;9.35;5.72;;;;;;;;;;5032660;28;20045;-87
2021/05/09 02:35:19;;;;;;;12.15;5.70;;;;;;;;;;5047825;28;20125;-87
2021/05/09 02:37:46;;;;;;;11.43;5.70;;;;;;;;;;5047603;28;20034;-87
2021/05/09 02:40:13;;;;;;;8.00;5.25;;;;;;;;;;5047990;28;20054;-87
2021/05/09 02:42:39;;;;;;;6.80;5.43;;;;;;;;;;5047824;28;20477;-87
2021/05/09 02:45:05;;;;;;;8.45;5.43;;;;;;;;;;5047760;28;20461;-87
2021/05/09 02:47:32;;;;;;;9.80;5.63;;;;;;;;;;5047647;28;20160;-87
2021/05/09 02:49:59;;;;;;;8.98;5.78;;;;;;;;;;5047583;28;20080;-87
2021/05/09 02:52:25;;;;;;;10.65;5.78;;;;;;;;;;5047943;28;20334;-87
2021/05/09 02:54:51;;;;;;;10.65;5.78;;;;;;;;;;5047616;28;20131;-87
2021/05/09 02:57:17;;;;;;;9.43;5.78;;;;;;;;;;5047544;28;20179;-87
2021/05/09 02:59:43;;;;;;;7.47;5.20;;;;;;;;;;5047757;28;20480;-87
2021/05/09 03:02:09;;;;;;;7.97;5.20;;;;;;;;;;5047638;28;20044;-87
2021/05/09 03:04:35;;;;;;;7.88;5.57;;;;;;;;;;5047497;28;20377;-87
2021/05/09 03:07:01;;;;;;;8.57;5.55;;;;;;;;;;5046567;28;20047;-87
2021/05/09 03:09:27;;;;;;;14.77;5.90;;;;;;;;;;5047565;28;20033;-87
2021/05/09 03:11:53;;;;;;;9.25;5.75;;;;;;;;;;5047474;28;20041;-85
2021/05/09 03:14:19;;;;;;;10.25;5.55;;;;;;;;;;5047625;28;20548;-87
2021/05/09 03:16:47;;;;;;;8.60;5.38;;;;;;;;;;5047160;28;20049;-87
2021/05/09 03:19:13;;;;;;;8.55;5.45;;;;;;;;;;5047398;28;20106;-87
2021/05/09 03:21:42;;;;;;;11.02;5.30;;;;;;;;;;5047379;28;20041;-87
2021/05/09 03:24:11;;;;;;;9.05;4.65;;;;;;;;;;5046871;28;20042;-87
2021/05/09 03:26:37;;;;;;;9.80;5.40;;;;;;;;;;5047217;28;20115;-87
2021/05/09 03:29:04;;;;;;;11.93;5.53;;;;;;;;;;5047279;28;20060;-87
2021/05/09 03:31:30;;;;;;;8.30;5.10;;;;;;;;;;5030563;28;20049;-87
2021/05/09 03:33:56;;;;;;;7.40;5.28;;;;;;;;;;5047146;28;20041;-87
2021/05/09 03:36:22;;;;;;;8.55;5.43;;;;;;;;;;5047020;28;20128;-87
2021/05/09 03:38:48;;;;;;;9.15;5.32;;;;;;;;;;5047043;28;20482;-87
2021/05/09 03:41:14;;;;;;;10.68;5.30;;;;;;;;;;5030941;28;20132;-87
2021/05/09 03:43:40;;;;;;;9.05;5.00;;;;;;;;;;5047198;28;20033;-87
2021/05/09 03:46:07;;;;;;;9.77;5.95;;;;;;;;;;5046993;28;20431;-87
2021/05/09 03:48:33;;;;;;;9.55;5.10;;;;;;;;;;5047087;28;20041;-87
2021/05/09 03:50:59;;;;;;;8.27;5.25;;;;;;;;;;5047046;28;20120;-87
2021/05/09 03:53:27;;;;;;;7.47;4.63;;;;;;;;;;5030482;28;20041;-87
2021/05/09 03:55:53;;;;;;;7.65;4.80;;;;;;;;;;5046603;28;20053;-87
2021/05/09 03:58:19;;;;;;;8.00;4.72;;;;;;;;;;5047032;28;20037;-87
2021/05/09 04:00:46;;;;;;;9.48;5.18;;;;;;;;;;5030400;28;20052;-87
2021/05/09 04:03:22;;;;;;;7.55;4.78;;;;;;;;;;5046850;28;20067;-87
2021/05/09 04:05:49;;;;;;;9.68;5.22;;;;;;;;;;5047037;28;20037;-87
2021/05/09 04:08:15;;;;;;;12.43;5.57;;;;;;;;;;5046957;28;20071;-87
2021/05/09 04:10:41;;;;;;;10.50;5.00;;;;;;;;;;5046947;28;20033;-87
2021/05/09 04:13:07;;;;;;;9.55;4.55;;;;;;;;;;5046861;28;20120;-87
2021/05/09 04:15:33;;;;;;;9.57;5.25;;;;;;;;;;5030541;28;20073;-87
2021/05/09 04:18:01;;;;;;;8.73;4.55;;;;;;;;;;5047652;28;20045;-87
2021/05/09 04:20:28;;;;;;;9.60;4.72;;;;;;;;;;5035239;28;20068;-87
2021/05/09 04:22:54;;;;;;;7.18;4.55;;;;;;;;;;5050497;28;20038;-87
2021/05/09 04:25:20;;;;;;;8.00;4.55;;;;;;;;;;5050379;28;20386;-86
2021/05/09 04:27:46;;;;;;;9.13;5.03;;;;;;;;;;5050432;28;20048;-87
2021/05/09 04:30:12;;;;;;;6.25;4.82;;;;;;;;;;5050329;28;20041;-87
2021/05/09 04:32:39;;;;;;;8.40;4.93;;;;;;;;;;5050156;28;20038;-87
2021/05/09 04:35:05;;;;;;;7.30;5.38;;;;;;;;;;5050258;28;20037;-87
2021/05/09 04:37:31;;;;;;;8.68;4.70;;;;;;;;;;5050046;28;20045;-87
2021/05/09 04:39:57;;;;;;;9.60;4.35;;;;;;;;;;5049900;28;20061;-87
2021/05/09 04:42:24;;;;;;;8.48;4.70;;;;;;;;;;5049981;28;20041;-86
2021/05/09 04:44:50;;;;;;;7.68;4.68;;;;;;;;;;5050062;28;20044;-87
2021/05/09 04:47:16;;;;;;;9.70;4.55;;;;;;;;;;5050078;28;20044;-87
2021/05/09 04:49:42;;;;;;;7.88;4.47;;;;;;;;;;5049968;28;20083;-87
2021/05/09 04:52:08;;;;;;;8.07;4.63;;;;;;;;;;5049856;28;20058;-87
2021/05/09 04:54:34;;;;;;;7.63;4.22;;;;;;;;;;5049805;28;20550;-87
2021/05/09 04:57:00;;;;;;;8.30;4.65;;;;;;;;;;5032930;28;20175;-87
2021/05/09 04:59:27;;;;;;;13.02;4.60;;;;;;;;;;5049728;28;20142;-87
2021/05/09 05:01:53;;;;;;;6.35;4.43;;;;;;;;;;5049762;28;20084;-87
2021/05/09 05:04:19;;;;;;;6.93;4.07;;;;;;;;;;5049863;28;20473;-87
2021/05/09 05:06:45;;;;;;;11.85;4.72;;;;;;;;;;5049628;28;20053;-87
2021/05/09 05:09:11;;;;;;;8.85;4.50;;;;;;;;;;5049594;28;20473;-87
2021/05/09 05:11:37;;;;;;;8.88;4.78;;;;;;;;;;5049435;28;20041;-87
2021/05/09 05:14:03;;;;;;;7.00;4.28;;;;;;;;;;5032861;28;20048;-87
2021/05/09 05:16:29;;;;;;;8.05;4.75;;;;;;;;;;5034062;28;20045;-87
2021/05/09 05:18:55;;;;;;;7.18;4.35;;;;;;;;;;5049328;28;20107;-86
2021/05/09 05:21:22;;;;;;;6.15;4.13;;;;;;;;;;5049519;28;20492;-86
2021/05/09 05:23:48;;;;;;;7.93;4.40;;;;;;;;;;5049542;28;20038;-86
2021/05/09 05:26:14;;;;;;;7.90;4.32;;;;;;;;;;5049007;28;20111;-87
2021/05/09 05:28:42;;;;;;;10.90;4.82;;;;;;;;;;5049103;28;20037;-87
2021/05/09 05:31:08;;;;;;;10.05;4.03;;;;;;;;;;5048517;28;20041;-86
2021/05/09 05:33:35;;;;;;;7.05;4.82;;;;;;;;;;5049076;28;20493;-87
2021/05/09 05:36:01;;;;;;;7.10;4.22;;;;;;;;;;5048849;28;20065;-87
2021/05/09 05:38:27;;;;;;;5.90;4.22;;;;;;;;;;5049070;28;20041;-87
2021/05/09 05:40:56;;;;;;;8.65;4.18;;;;;;;;;;5049031;28;20047;-87
2021/05/09 05:43:23;;;;;;;5.70;3.83;;;;;;;;;;5048659;28;20041;-87
2021/05/09 05:45:50;;;;;;;7.38;4.22;;;;;;;;;;5049035;28;20048;-86
2021/05/09 05:48:16;;;;;;;7.07;3.75;;;;;;;;;;5032247;28;20338;-87
2021/05/09 05:50:42;;;;;;;4.50;3.78;;;;;;;;;;5048848;28;20033;-87
2021/05/09 05:53:08;;;;;;;7.70;4.13;;;;;;;;;;5048764;28;20033;-87
2021/05/09 05:55:34;;;;;;;6.07;3.55;;;;;;;;;;5048612;28;20067;-87
2021/05/09 05:58:00;;;;;;;6.82;3.70;;;;;;;;;;5048569;28;20113;-87
2021/05/09 06:00:26;;;;;;;5.82;3.85;;;;;;;;;;5048559;28;20061;-87
2021/05/09 06:02:52;;;;;;;7.13;3.88;;;;;;;;;;5049295;28;20477;-86
2021/05/09 06:05:21;;;;;;;6.63;3.50;;;;;;;;;;5048257;28;20029;-87
2021/05/09 06:07:47;;;;;;;6.35;3.55;;;;;;;;;;5032947;28;20048;-87
2021/05/09 06:10:14;;;;;;;4.90;3.33;;;;;;;;;;5048511;28;20099;-87
2021/05/09 06:12:40;;;;;;;6.13;3.50;;;;;;;;;;5048340;28;20074;-87
2021/05/09 06:15:06;;;;;;;6.03;3.55;;;;;;;;;;5033085;28;20061;-86
2021/05/09 06:17:32;;;;;;;4.97;3.55;;;;;;;;;;5032794;28;20083;-87
2021/05/09 06:20:00;;;;;;;5.15;3.53;;;;;;;;;;5032902;28;20041;-86
2021/05/09 06:22:26;;;;;;;6.22;3.90;;;;;;;;;;5048035;28;20040;-86
2021/05/09 06:24:52;;;;;;;8.38;3.90;;;;;;;;;;5048291;28;20389;-87
2021/05/09 06:27:18;;;;;;;5.60;3.60;;;;;;;;;;5032946;28;20045;-87
2021/05/09 06:29:44;;;;;;;6.47;3.55;;;;;;;;;;5032708;28;20033;-86
2021/05/09 06:32:10;;;;;;;6.88;3.85;;;;;;;;;;5048063;28;20113;-87
2021/05/09 06:34:37;;;;;;;5.40;3.72;;;;;;;;;;5048076;28;20441;-87
2021/05/09 06:37:03;;;;;;;5.95;3.33;;;;;;;;;;5047593;28;20038;-87
2021/05/09 06:39:30;;;;;;;4.43;3.58;;;;;;;;;;5047931;28;20117;-86
2021/05/09 06:41:57;;;;;;;6.93;3.53;;;;;;;;;;5047799;28;20033;-87
2021/05/09 06:44:26;;;;;;;7.65;3.55;;;;;;;;;;5047881;28;20037;-87
2021/05/09 06:46:52;;;;;;;6.20;3.83;;;;;;;;;;5047474;28;20037;-87
2021/05/09 06:49:18;;;;;;;7.32;4.07;;;;;;;;;;5032417;28;20037;-87
2021/05/09 06:51:44;;;;;;;5.45;4.00;;;;;;;;;;5047700;28;20052;-86
2021/05/09 06:54:10;;;;;;;7.03;3.38;;;;;;;;;;5047725;28;20473;-86
2021/05/09 06:56:36;;;;;;;7.55;3.33;;;;;;;;;;5047524;28;20037;-87
2021/05/09 06:59:03;;;;;;;4.85;3.17;;;;;;;;;;5047637;28;20033;-87
2021/05/09 07:01:30;;;;;;;5.97;3.70;;;;;;;;;;5032277;28;20132;-87
2021/05/09 07:03:56;;;;;;;5.70;3.20;;;;;;;;;;5047564;28;20040;-87
2021/05/09 07:06:22;;;;;;;4.40;3.13;;;;;;;;;;5047422;28;20049;-86
2021/05/09 07:08:48;;;;;;;6.40;3.10;;;;;;;;;;5047529;28;20633;-87
2021/05/09 07:11:14;;;;;;;5.85;3.30;;;;;;;;;;5047500;28;20113;-87
2021/05/09 07:13:40;;;;;;;5.15;2.95;;;;;;;;;;5047560;28;20064;-86
2021/05/09 07:16:06;;;;;;;5.22;2.85;;;;;;;;;;5030967;28;20038;-87
2021/05/09 07:18:34;;;;;;;4.15;3.20;;;;;;;;;;5047273;28;20124;-87
2021/05/09 07:21:02;;;;;;;6.78;3.38;;;;;;;;;;5047217;28;20571;-86
2021/05/09 07:23:31;;;;;;;7.50;3.10;;;;;;;;;;5047069;28;20107;-85
2021/05/09 07:25:57;;;;;;;4.82;3.38;;;;;;;;;;5047150;28;20045;-86
2021/05/09 07:28:23;;;;;;;6.28;2.95;;;;;;;;;;5047336;28;20500;-86
2021/05/09 07:30:49;;;;;;;4.35;3.17;;;;;;;;;;5047279;28;20038;-86
2021/05/09 07:33:15;;;;;;;4.95;2.90;;;;;;;;;;5047227;28;20045;-87
2021/05/09 07:35:42;;;;;;;3.85;2.92;;;;;;;;;;5047217;28;20465;-86
2021/05/09 07:38:08;;;;;;;5.03;3.20;;;;;;;;;;5047089;28;20393;-86
2021/05/09 07:40:34;;;;;;;5.38;3.00;;;;;;;;;;5030146;28;20151;-86
2021/05/09 07:43:00;;;;;;;4.80;2.75;;;;;;;;;;5047214;28;20060;-86
2021/05/09 07:45:27;;;;;;;3.65;2.63;;;;;;;;;;5047394;28;20127;-86
2021/05/09 07:47:53;;;;;;;5.60;2.50;;;;;;;;;;5031602;28;20120;-86
2021/05/09 07:50:19;;;;;;;4.65;2.92;;;;;;;;;;5047149;28;20071;-86
2021/05/09 07:52:46;;;;;;;5.43;2.80;;;;;;;;;;5047893;28;20039;-86
2021/05/09 07:55:12;;;;;;;4.25;2.50;;;;;;;;;;5050902;28;20037;-86
2021/05/09 07:57:39;;;;;;;4.60;2.80;;;;;;;;;;5050832;28;20044;-84
2021/05/09 08:00:10;;;;;;;6.53;2.63;;;;;;;;;;5035539;28;20047;-83
2021/05/09 08:02:36;;;;;;;4.88;2.90;;;;;;;;;;5050146;28;20159;-84
2021/05/09 08:05:02;;;;;;;4.75;3.15;;;;;;;;;;5050916;28;20034;-84
2021/05/09 08:07:28;;;;;;;4.45;2.90;;;;;;;;;;5050935;28;20041;-84
2021/05/09 08:09:54;;;;;;;4.07;2.45;;;;;;;;;;5050731;28;20113;-84
2021/05/09 08:12:20;;;;;;;3.65;2.85;;;;;;;;;;5050696;28;20041;-84
2021/05/09 08:14:48;;;;;;;4.63;2.72;;;;;;;;;;5050661;28;20091;-84
2021/05/09 08:17:14;;;;;;;3.22;2.53;;;;;;;;;;5050243;28;20045;-84
2021/05/09 08:19:40;;;;;;;3.25;2.60;;;;;;;;;;5035168;28;20041;-84
2021/05/09 08:22:08;;;;;;;5.18;2.58;;;;;;;;;;5035004;28;20045;-84
2021/05/09 08:24:34;;;;;;;3.90;2.53;;;;;;;;;;5050387;28;20045;-84
2021/05/09 08:27:00;;;;;;;3.80;2.55;;;;;;;;;;5050445;28;20481;-84
2021/05/09 08:29:26;;;;;;;4.13;2.03;;;;;;;;;;5050253;28;20045;-84
2021/05/09 08:31:52;;;;;;;3.33;2.38;;;;;;;;;;5050228;28;20033;-84
2021/05/09 08:34:18;;;;;;;3.10;2.38;;;;;;;;;;5050300;28;20116;-84
2021/05/09 08:36:44;;;;;;;3.50;2.20;;;;;;;;;;5050062;28;20103;-84
2021/05/09 08:39:10;;;;;;;4.38;2.17;;;;;;;;;;5034717;28;20073;-84
2021/05/09 08:41:40;;;;;;;3.63;2.10;;;;;;;;;;5033719;28;20488;-84
2021/05/09 08:44:09;;;;;;;3.55;2.00;;;;;;;;;;5049884;28;20106;-84
2021/05/09 08:46:36;;;;;;;3.38;1.95;;;;;;;;;;5049988;28;20080;-82
2021/05/09 08:49:02;;;;;;;3.17;2.10;;;;;;;;;;5049995;28;20037;-84
2021/05/09 08:51:28;;;;;;;2.28;2.00;;;;;;;;;;5050057;28;20037;-84
2021/05/09 08:53:55;;;;;;;3.67;2.00;;;;;;;;;;5049899;28;20179;-84
2021/05/09 08:56:21;;;;;;;4.95;2.15;;;;;;;;;;5049754;28;20235;-85
2021/05/09 08:58:48;;;;;;;5.55;3.42;;;;;;;;;;5049732;28;20037;-84
2021/05/09 09:01:14;;;;;;;6.60;3.42;;;;;;;;;;5034370;28;20033;-84
2021/05/09 09:03:42;;;;;;;3.90;2.67;;;;;;;;;;5033915;28;20050;-84
2021/05/09 09:06:16;;;;;;;4.93;2.58;;;;;;;;;;5049017;28;20147;-84
2021/05/09 09:08:51;;;;;;;4.15;2.10;;;;;;;;;;5048563;28;20537;-84
2021/05/09 09:11:27;;;;;;;4.00;2.10;;;;;;;;;;5049434;28;20041;-84
2021/05/09 09:14:07;;;;;;;4.07;2.20;;;;;;;;;;5034169;28;20068;-84
2021/05/09 09:16:33;;;;;;;2.63;2.22;;;;;;;;;;5049199;28;20068;-84
2021/05/09 09:19:06;;;;;;;2.67;2.10;;;;;;;;;;5049571;28;20064;-84
2021/05/09 09:21:32;;;;;;;2.90;2.15;;;;;;;;;;5049243;28;20037;-84
2021/05/09 09:24:10;;;;;;;4.32;1.92;;;;;;;;;;5034301;28;20115;-85
2021/05/09 09:26:37;;;;;;;3.40;2.33;;;;;;;;;;5033916;28;20049;-84
2021/05/09 09:29:20;;;;;;;3.97;1.92;;;;;;;;;;5049118;28;20041;-83
2021/05/09 09:31:46;;;;;;;2.25;1.80;;;;;;;;;;5049127;28;20037;-84
2021/05/09 09:34:12;;;;;;;4.45;2.20;;;;;;;;;;5049018;28;20440;-84
2021/05/09 09:36:38;;;;;;;2.42;1.77;;;;;;;;;;5048947;28;20033;-84
2021/05/09 09:39:05;;;;;;;2.92;1.80;;;;;;;;;;5048773;28;20045;-83
2021/05/09 09:41:31;;;;;;;3.95;1.98;;;;;;;;;;5049262;28;20539;-84
2021/05/09 09:44:11;;;;;;;3.08;2.13;;;;;;;;;;5048897;28;20552;-86
2021/05/09 09:46:41;;;;;;;4.18;2.50;;;;;;;;;;5048604;28;20117;-86
2021/05/09 09:49:27;;;;;;;8.65;2.95;;;;;;;;;;5032277;28;20045;-86
2021/05/09 09:51:53;;;;;;;6.55;2.50;;;;;;;;;;5048795;28;20401;-86
2021/05/09 09:54:41;;;;;;;4.95;2.35;;;;;;;;;;5048757;28;20034;-86
2021/05/09 09:57:08;;;;;;;7.53;2.90;;;;;;;;;;5031901;28;20033;-86
2021/05/09 09:59:34;;;;;;;5.53;2.58;;;;;;;;;;5033306;28;20056;-85
2021/05/09 10:02:02;;;;;;;2.72;2.30;;;;;;;;;;5048745;28;20096;-86
2021/05/09 10:04:28;;;;;;;2.45;2.25;;;;;;;;;;5048574;28;20405;-86
2021/05/09 10:06:54;;;;;;;3.40;2.47;;;;;;;;;;5048480;28;20041;-86
2021/05/09 10:09:20;;;;;;;3.22;2.40;;;;;;;;;;5048782;28;20045;-86
2021/05/09 10:11:46;;;;;;;3.80;2.53;;;;;;;;;;5048490;28;20507;-87
2021/05/09 10:14:12;;;;;;;3.05;2.53;;;;;;;;;;5048450;28;20042;-86
2021/05/09 10:16:40;;;;;;;2.65;2.17;;;;;;;;;;5047892;28;20103;-87
2021/05/09 10:19:10;;;;;;;2.63;2.17;;;;;;;;;;5048139;28;20076;-85
2021/05/09 10:21:36;;;;;;;4.38;2.00;;;;;;;;;;5047644;28;20046;-85
2021/05/09 10:24:19;;;;;;;4.32;2.15;;;;;;;;;;5048196;28;20484;-86
2021/05/09 10:26:59;;;;;;;2.80;1.98;;;;;;;;;;5047990;28;20041;-85
2021/05/09 10:29:37;;;;;;;4.95;2.10;;;;;;;;;;5048309;28;20056;-86
2021/05/09 10:32:09;;;;;;;2.90;1.90;;;;;;;;;;5032904;28;20071;-86
2021/05/09 10:34:57;;;;;;;3.28;1.98;;;;;;;;;;5047899;28;20049;-86
2021/05/09 10:37:42;;;;;;;2.30;2.00;;;;;;;;;;5032545;28;20045;-86
2021/05/09 10:40:18;;;;;;;2.20;2.00;;;;;;;;;;5047918;28;20046;-87
2021/05/09 10:42:44;;;;;;;3.10;2.00;;;;;;;;;;5047890;28;20045;-86
2021/05/09 10:45:10;;;;;;;2.58;1.80;;;;;;;;;;5047753;28;20432;-86
2021/05/09 10:47:36;;;;;;;3.50;1.90;;;;;;;;;;5047659;28;20128;-87
2021/05/09 10:50:17;;;;;;;3.42;1.60;;;;;;;;;;5048080;28;20044;-86
2021/05/09 10:52:44;;;;;;;2.38;1.60;;;;;;;;;;5047834;28;20516;-86
2021/05/09 10:55:28;;;;;;;2.38;1.60;;;;;;;;;;5047665;28;20083;-85
2021/05/09 10:57:54;;;;;;;3.28;1.48;;;;;;;;;;5030828;28;20049;-85
2021/05/09 11:00:20;;;;;;;2.25;1.50;;;;;;;;;;5047611;28;20393;-86
2021/05/09 11:02:46;;;;;;;3.78;1.50;;;;;;;;;;5047671;28;20044;-85
2021/05/09 11:05:12;;;;;;;1.63;1.33;;;;;;;;;;5032277;28;20040;-85
2021/05/09 11:07:42;;;;;;;2.67;1.70;;;;;;;;;;5047495;28;20400;-86
2021/05/09 11:10:27;;;;;;;2.38;1.60;;;;;;;;;;5047454;28;20033;-87
2021/05/09 11:13:06;;;;;;;3.08;1.50;;;;;;;;;;5032141;28;20057;-86
2021/05/09 11:15:32;;;;;;;4.25;1.60;;;;;;;;;;5047598;28;20065;-86
2021/05/09 11:17:58;;;;;;;2.03;1.33;;;;;;;;;;5047278;28;20041;-86
2021/05/09 11:20:24;;;;;;;3.38;1.20;;;;;;;;;;5047307;28;20029;-85
2021/05/09 11:22:59;;;;;;;3.08;1.20;;;;;;;;;;5047358;28;20071;-86
2021/05/09 11:25:30;;;;;;;2.15;1.30;;;;;;;;;;5047261;28;20042;-86
2021/05/09 11:27:56;;;;;;;2.78;1.38;;;;;;;;;;5033153;28;20037;-86
2021/05/09 11:30:22;;;;;;;3.25;1.45;;;;;;;;;;5051577;28;20034;-86
2021/05/09 11:32:48;;;;;;;3.03;1.30;;;;;;;;;;5051360;28;20044;-86
2021/05/09 11:35:14;;;;;;;3.47;1.50;;;;;;;;;;5051416;28;20087;-86
2021/05/09 11:37:41;;;;;;;2.25;1.50;;;;;;;;;;5051359;28;20038;-85
2021/05/09 11:40:09;;;;;;;3.17;1.13;;;;;;;;;;5051258;28;20057;-86
2021/05/09 11:42:35;;;;;;;3.85;1.60;;;;;;;;;;5051118;28;20087;-86
2021/05/09 11:45:01;;;;;;;2.20;1.27;;;;;;;;;;5051218;28;20443;-86
2021/05/09 11:47:28;;;;;;;2.80;1.40;;;;;;;;;;5050918;28;20038;-86
2021/05/09 11:49:56;;;;;;;2.95;1.30;;;;;;;;;;5051111;28;20196;-86
2021/05/09 11:52:23;;;;;;;2.95;1.40;;;;;;;;;;5051039;28;20038;-86
2021/05/09 11:54:57;;;;;;;2.45;1.40;;;;;;;;;;5050867;28;20048;-86
2021/05/09 11:57:23;;;;;;;1.65;1.20;;;;;;;;;;5050547;28;20041;-86
2021/05/09 11:59:49;;;;;;;3.35;1.27;;;;;;;;;;5050668;28;20034;-84
2021/05/09 12:02:20;;;;;;;2.40;1.55;;;;;;;;;;5035447;28;20385;-83
2021/05/09 12:04:49;;;;;;;2.08;1.60;;;;;;;;;;5050857;28;20481;-84
2021/05/09 12:07:16;;;;;;;3.65;1.33;;;;;;;;;;5050704;28;20465;-84
2021/05/09 12:09:42;;;;;;;1.90;1.35;;;;;;;;;;5034104;28;20056;-84
2021/05/09 12:12:09;;;;;;;2.85;1.40;;;;;;;;;;5050742;28;20042;-84
2021/05/09 12:14:35;;;;;;;2.85;1.50;;;;;;;;;;5050649;28;20041;-84
2021/05/09 12:17:01;;;;;;;1.35;1.23;;;;;;;;;;5050555;28;20037;-83
2021/05/09 12:19:33;;;;;;;2.00;1.55;;;;;;;;;;5050580;28;20044;-84
2021/05/09 12:22:03;;;;;;;2.92;1.42;;;;;;;;;;5050441;28;20033;-83
2021/05/09 12:24:29;;;;;;;4.75;1.50;;;;;;;;;;5050342;28;20067;-84
2021/05/09 12:27:05;;;;;;;1.60;1.45;;;;;;;;;;5050160;28;20050;-83
2021/05/09 12:29:31;;;;;;;3.00;1.48;;;;;;;;;;5049845;28;20079;-84
2021/05/09 12:32:16;;;;;;;3.63;1.70;;;;;;;;;;5049990;28;20176;-83
2021/05/09 12:34:58;;;;;;;2.63;1.67;;;;;;;;;;5050338;28;20116;-84
2021/05/09 12:37:28;;;;;;;2.38;1.83;;;;;;;;;;5050078;28;20047;-83
2021/05/09 12:40:13;;;;;;;2.40;1.42;;;;;;;;;;5049152;28;20058;-83
2021/05/09 12:42:56;;;;;;;2.17;1.70;;;;;;;;;;5050531;28;20038;-84
2021/05/09 12:45:41;;;;;;;1.50;1.30;;;;;;;;;;5034735;28;20034;-84
2021/05/09 12:48:10;;;;;;;1.67;1.58;;;;;;;;;;5050000;28;20390;-83
2021/05/09 12:50:43;;;;;;;3.05;1.58;;;;;;;;;;5050177;28;20045;-83
2021/05/09 12:53:09;;;;;;;4.15;1.50;;;;;;;;;;5050001;28;20045;-83
2021/05/09 12:55:35;;;;;;;2.55;1.80;;;;;;;;;;5049927;28;20045;-83
2021/05/09 12:58:05;;;;;;;3.25;1.92;;;;;;;;;;5049675;28;20041;-83
2021/05/09 13:00:32;;;;;;;2.95;1.60;;;;;;;;;;5049742;28;20033;-84
2021/05/09 13:02:58;;;;;;;3.47;1.60;;;;;;;;;;5049714;28;20033;-83
2021/05/09 13:05:25;;;;;;;2.42;1.60;;;;;;;;;;5049713;28;20091;-83
2021/05/09 13:07:51;;;;;;;2.58;1.60;;;;;;;;;;5049476;28;20075;-83
2021/05/09 13:10:23;;;;;;;2.20;1.67;;;;;;;;;;5049590;28;20038;-83
2021/05/09 13:12:54;;;;;;;2.20;1.65;;;;;;;;;;5048753;28;20069;-83
2021/05/09 13:15:20;;;;;;;2.20;2.00;;;;;;;;;;5049463;28;20045;-83
2021/05/09 13:17:46;;;;;;;4.03;1.80;;;;;;;;;;5032741;28;20488;-83
2021/05/09 13:20:12;;;;;;;1.98;1.80;;;;;;;;;;5034116;28;20034;-84
2021/05/09 13:22:38;;;;;;;4.57;1.95;;;;;;;;;;5049563;28;20060;-84
2021/05/09 13:25:05;;;;;;;2.58;1.92;;;;;;;;;;5049329;28;20456;-83
2021/05/09 13:27:33;;;;;;;1.88;1.58;;;;;;;;;;5033805;28;20045;-84
2021/05/09 13:30:03;;;;;;;3.47;2.72;;;;;;;;;;5049113;28;20079;-83
2021/05/09 13:32:29;;;;;;;1.88;1.77;;;;;;;;;;5033899;28;20438;-83
2021/05/09 13:34:55;;;;;;;3.33;1.95;;;;;;;;;;5049193;28;20107;-83
2021/05/09 13:37:21;;;;;;;3.45;2.20;;;;;;;;;;5049073;28;20076;-83
2021/05/09 13:39:47;;;;;;;4.90;1.90;;;;;;;;;;5048953;28;20050;-83
2021/05/09 13:42:14;;;;;;;3.13;1.88;;;;;;;;;;5048977;28;20038;-83
2021/05/09 13:44:40;;;;;;;2.28;1.92;;;;;;;;;;5049154;28;20029;-82
2021/05/09 13:47:06;;;;;;;4.10;2.20;;;;;;;;;;5048859;28;20065;-83
2021/05/09 13:49:32;;;;;;;2.75;2.17;;;;;;;;;;5048899;28;20033;-83
2021/05/09 13:51:58;;;;;;;3.33;1.92;;;;;;;;;;5048045;28;20048;-83
2021/05/09 13:54:25;;;;;;;3.05;2.03;;;;;;;;;;5048754;28;20116;-84
2021/05/09 13:56:51;;;;;;;4.38;2.20;;;;;;;;;;5048581;28;20052;-82
2021/05/09 13:59:17;;;;;;;2.85;2.13;;;;;;;;;;5033452;28;20042;-83
2021/05/09 14:01:43;;;;;;;5.05;2.20;;;;;;;;;;5033464;28;20448;-84
2021/05/09 14:04:10;;;;;;;4.03;2.30;;;;;;;;;;5048806;28;20038;-83
2021/05/09 14:06:36;;;;;;;2.35;2.13;;;;;;;;;;5048221;28;20044;-83
2021/05/09 14:09:03;;;;;;;2.90;2.08;;;;;;;;;;5033147;28;20507;-83
2021/05/09 14:11:29;;;;;;;2.65;2.45;;;;;;;;;;5048560;28;20039;-83
2021/05/09 14:13:55;;;;;;;3.60;2.15;;;;;;;;;;5048443;28;20481;-83
2021/05/09 14:16:23;;;;;;;2.88;2.30;;;;;;;;;;5048303;28;20115;-82
2021/05/09 14:18:49;;;;;;;3.60;2.28;;;;;;;;;;5048504;28;20047;-83
2021/05/09 14:21:15;;;;;;;5.60;2.83;;;;;;;;;;5048232;28;20120;-82
2021/05/09 14:23:41;;;;;;;6.90;2.35;;;;;;;;;;5048278;28;20053;-83
2021/05/09 14:26:07;;;;;;;4.65;2.60;;;;;;;;;;5048178;28;20109;-83
2021/05/09 14:28:35;;;;;;;3.92;2.25;;;;;;;;;;5048032;28;20053;-83
2021/05/09 14:31:01;;;;;;;5.85;2.22;;;;;;;;;;5048080;28;20504;-83
2021/05/09 14:33:27;;;;;;;3.60;2.10;;;;;;;;;;5048116;28;20069;-83
2021/05/09 14:35:53;;;;;;;3.40;2.13;;;;;;;;;;5048157;28;20041;-83
2021/05/09 14:38:19;;;;;;;3.53;2.20;;;;;;;;;;5047776;28;20530;-85
2021/05/09 14:40:45;;;;;;;2.28;2.05;;;;;;;;;;5047814;28;20497;-85
2021/05/09 14:43:11;;;;;;;3.67;2.30;;;;;;;;;;5047928;28;20100;-85